sensor_id;sensor_type;location;lat;lon;timestamp;P1;durP1;ratioP1;P2;durP2;ratioP2
69989;SDS011;57331;52.054;5.294;2023-06-26T00:01:33;10.82;;;7.30;;
69989;SDS011;57331;52.054;5.294;2023-06-26T00:04:00;11.97;;;7.40;;
69989;SDS011;57331;52.054;5.294;2023-06-26T00:06:28;13.85;;;7.78;;
69989;SDS011;57331;52.054;5.294;2023-06-26T00:08:55;13.00;;;7.70;;
69989;SDS011;57331;52.054;5.294;2023-06-26T00:11:22;13.65;;;7.22;;
69989;SDS011;57331;52.054;5.294;2023-06-26T00:13:49;12.48;;;7.30;;
69989;SDS011;57331;52.054;5.294;2023-06-26T00:16:16;11.57;;;7.60;;
69989;SDS011;57331;52.054;5.294;2023-06-26T00:18:43;12.02;;;8.00;;
69989;SDS011;57331;52.054;5.294;2023-06-26T00:21:10;9.80;;;6.32;;
69989;SDS011;57331;52.054;5.294;2023-06-26T00:23:37;11.82;;;7.50;;
69989;SDS011;57331;52.054;5.294;2023-06-26T00:26:06;11.77;;;7.57;;
69989;SDS011;57331;52.054;5.294;2023-06-26T00:28:33;12.40;;;7.13;;
69989;SDS011;57331;52.054;5.294;2023-06-26T00:31:00;18.08;;;7.30;;
69989;SDS011;57331;52.054;5.294;2023-06-26T00:33:28;12.80;;;8.07;;
69989;SDS011;57331;52.054;5.294;2023-06-26T00:35:56;13.25;;;8.45;;
69989;SDS011;57331;52.054;5.294;2023-06-26T00:38:23;12.70;;;7.97;;
69989;SDS011;57331;52.054;5.294;2023-06-26T00:40:50;11.67;;;7.93;;
69989;SDS011;57331;52.054;5.294;2023-06-26T00:43:20;11.63;;;7.60;;
69989;SDS011;57331;52.054;5.294;2023-06-26T00:45:48;12.70;;;8.10;;
69989;SDS011;57331;52.054;5.294;2023-06-26T00:48:15;11.75;;;7.65;;
69989;SDS011;57331;52.054;5.294;2023-06-26T00:50:43;13.25;;;8.60;;
69989;SDS011;57331;52.054;5.294;2023-06-26T00:53:10;12.77;;;8.47;;
69989;SDS011;57331;52.054;5.294;2023-06-26T00:55:38;13.02;;;8.25;;
69989;SDS011;57331;52.054;5.294;2023-06-26T00:58:05;12.38;;;8.18;;
69989;SDS011;57331;52.054;5.294;2023-06-26T01:00:32;12.68;;;8.63;;
69989;SDS011;57331;52.054;5.294;2023-06-26T01:02:59;12.35;;;8.25;;
69989;SDS011;57331;52.054;5.294;2023-06-26T01:05:27;14.97;;;7.77;;
69989;SDS011;57331;52.054;5.294;2023-06-26T01:07:55;12.73;;;7.20;;
69989;SDS011;57331;52.054;5.294;2023-06-26T01:10:24;14.68;;;7.30;;
69989;SDS011;57331;52.054;5.294;2023-06-26T01:12:54;11.40;;;7.38;;
69989;SDS011;57331;52.054;5.294;2023-06-26T01:15:21;12.10;;;6.18;;
69989;SDS011;57331;52.054;5.294;2023-06-26T01:17:50;10.23;;;6.23;;
69989;SDS011;57331;52.054;5.294;2023-06-26T01:20:18;10.50;;;6.35;;
69989;SDS011;57331;52.054;5.294;2023-06-26T01:28:34;10.95;;;5.82;;
69989;SDS011;57331;52.054;5.294;2023-06-26T01:31:04;15.07;;;6.60;;
69989;SDS011;57331;52.054;5.294;2023-06-26T01:33:32;10.13;;;6.35;;
69989;SDS011;57331;52.054;5.294;2023-06-26T01:36:00;11.65;;;6.40;;
69989;SDS011;57331;52.054;5.294;2023-06-26T01:38:27;11.18;;;6.60;;
69989;SDS011;57331;52.054;5.294;2023-06-26T01:40:56;9.40;;;5.57;;
69989;SDS011;57331;52.054;5.294;2023-06-26T01:46:04;10.93;;;5.10;;
69989;SDS011;57331;52.054;5.294;2023-06-26T01:48:34;10.48;;;5.38;;
69989;SDS011;57331;52.054;5.294;2023-06-26T01:51:09;13.02;;;5.57;;
69989;SDS011;57331;52.054;5.294;2023-06-26T01:53:40;9.68;;;5.00;;
69989;SDS011;57331;52.054;5.294;2023-06-26T01:56:13;10.00;;;4.60;;
69989;SDS011;57331;52.054;5.294;2023-06-26T01:58:43;11.10;;;4.85;;
69989;SDS011;57331;52.054;5.294;2023-06-26T02:01:12;11.50;;;4.90;;
69989;SDS011;57331;52.054;5.294;2023-06-26T02:03:40;9.88;;;5.10;;
69989;SDS011;57331;52.054;5.294;2023-06-26T02:06:07;13.13;;;4.90;;
69989;SDS011;57331;52.054;5.294;2023-06-26T02:08:34;11.33;;;4.80;;
69989;SDS011;57331;52.054;5.294;2023-06-26T02:11:01;14.60;;;5.15;;
69989;SDS011;57331;52.054;5.294;2023-06-26T02:13:28;12.27;;;4.65;;
69989;SDS011;57331;52.054;5.294;2023-06-26T02:15:55;13.77;;;4.63;;
69989;SDS011;57331;52.054;5.294;2023-06-26T02:18:23;9.60;;;4.18;;
69989;SDS011;57331;52.054;5.294;2023-06-26T02:20:51;11.73;;;4.90;;
69989;SDS011;57331;52.054;5.294;2023-06-26T02:23:20;13.80;;;4.50;;
69989;SDS011;57331;52.054;5.294;2023-06-26T02:25:47;15.77;;;4.88;;
69989;SDS011;57331;52.054;5.294;2023-06-26T02:28:14;11.07;;;4.28;;
69989;SDS011;57331;52.054;5.294;2023-06-26T02:30:42;10.63;;;4.38;;
69989;SDS011;57331;52.054;5.294;2023-06-26T02:33:09;12.33;;;4.20;;
69989;SDS011;57331;52.054;5.294;2023-06-26T02:35:36;13.73;;;4.60;;
69989;SDS011;57331;52.054;5.294;2023-06-26T02:38:03;10.77;;;4.32;;
69989;SDS011;57331;52.054;5.294;2023-06-26T02:40:30;14.57;;;4.75;;
69989;SDS011;57331;52.054;5.294;2023-06-26T02:42:58;14.48;;;4.65;;
69989;SDS011;57331;52.054;5.294;2023-06-26T02:45:25;10.17;;;3.80;;
69989;SDS011;57331;52.054;5.294;2023-06-26T02:47:52;12.20;;;4.38;;
69989;SDS011;57331;52.054;5.294;2023-06-26T02:50:20;12.38;;;4.65;;
69989;SDS011;57331;52.054;5.294;2023-06-26T02:53:02;14.30;;;4.28;;
69989;SDS011;57331;52.054;5.294;2023-06-26T02:55:29;12.00;;;4.32;;
69989;SDS011;57331;52.054;5.294;2023-06-26T02:57:56;15.37;;;4.27;;
69989;SDS011;57331;52.054;5.294;2023-06-26T03:00:23;12.63;;;4.55;;
69989;SDS011;57331;52.054;5.294;2023-06-26T03:02:53;13.70;;;4.82;;
69989;SDS011;57331;52.054;5.294;2023-06-26T03:05:21;11.63;;;3.92;;
69989;SDS011;57331;52.054;5.294;2023-06-26T03:07:51;13.98;;;4.63;;
69989;SDS011;57331;52.054;5.294;2023-06-26T03:10:18;14.50;;;4.60;;
69989;SDS011;57331;52.054;5.294;2023-06-26T03:12:45;11.95;;;4.55;;
69989;SDS011;57331;52.054;5.294;2023-06-26T03:15:14;14.57;;;4.53;;
69989;SDS011;57331;52.054;5.294;2023-06-26T03:17:41;15.07;;;4.80;;
69989;SDS011;57331;52.054;5.294;2023-06-26T03:20:13;19.55;;;4.88;;
69989;SDS011;57331;52.054;5.294;2023-06-26T03:22:47;13.97;;;4.77;;
69989;SDS011;57331;52.054;5.294;2023-06-26T03:25:16;12.25;;;4.40;;
69989;SDS011;57331;52.054;5.294;2023-06-26T03:27:43;15.18;;;4.90;;
69989;SDS011;57331;52.054;5.294;2023-06-26T03:30:11;13.88;;;4.80;;
69989;SDS011;57331;52.054;5.294;2023-06-26T03:32:40;14.77;;;4.90;;
69989;SDS011;57331;52.054;5.294;2023-06-26T03:35:07;15.10;;;5.00;;
69989;SDS011;57331;52.054;5.294;2023-06-26T03:37:35;16.67;;;4.70;;
69989;SDS011;57331;52.054;5.294;2023-06-26T03:40:04;13.30;;;5.03;;
69989;SDS011;57331;52.054;5.294;2023-06-26T03:42:31;12.45;;;4.97;;
69989;SDS011;57331;52.054;5.294;2023-06-26T03:44:59;15.38;;;4.40;;
69989;SDS011;57331;52.054;5.294;2023-06-26T03:47:27;18.27;;;4.93;;
69989;SDS011;57331;52.054;5.294;2023-06-26T03:49:55;17.05;;;4.90;;
69989;SDS011;57331;52.054;5.294;2023-06-26T03:52:22;18.85;;;5.38;;
69989;SDS011;57331;52.054;5.294;2023-06-26T03:54:50;14.00;;;4.88;;
69989;SDS011;57331;52.054;5.294;2023-06-26T03:57:17;12.40;;;4.95;;
69989;SDS011;57331;52.054;5.294;2023-06-26T03:59:46;16.93;;;5.70;;
69989;SDS011;57331;52.054;5.294;2023-06-26T04:02:13;16.30;;;5.15;;
69989;SDS011;57331;52.054;5.294;2023-06-26T04:04:42;15.75;;;5.13;;
69989;SDS011;57331;52.054;5.294;2023-06-26T04:07:09;17.98;;;5.05;;
69989;SDS011;57331;52.054;5.294;2023-06-26T04:09:36;15.48;;;5.35;;
69989;SDS011;57331;52.054;5.294;2023-06-26T04:12:05;15.30;;;5.07;;
69989;SDS011;57331;52.054;5.294;2023-06-26T04:14:33;16.60;;;4.53;;
69989;SDS011;57331;52.054;5.294;2023-06-26T04:17:00;16.20;;;4.85;;
69989;SDS011;57331;52.054;5.294;2023-06-26T04:19:30;14.40;;;4.53;;
69989;SDS011;57331;52.054;5.294;2023-06-26T04:22:00;15.30;;;4.85;;
69989;SDS011;57331;52.054;5.294;2023-06-26T04:24:27;17.73;;;4.80;;
69989;SDS011;57331;52.054;5.294;2023-06-26T04:26:54;13.45;;;4.70;;
69989;SDS011;57331;52.054;5.294;2023-06-26T04:29:27;17.52;;;4.78;;
69989;SDS011;57331;52.054;5.294;2023-06-26T04:31:54;13.93;;;4.78;;
69989;SDS011;57331;52.054;5.294;2023-06-26T04:34:25;19.10;;;4.88;;
69989;SDS011;57331;52.054;5.294;2023-06-26T04:36:53;18.10;;;5.07;;
69989;SDS011;57331;52.054;5.294;2023-06-26T04:39:21;14.75;;;4.53;;
69989;SDS011;57331;52.054;5.294;2023-06-26T04:41:48;16.40;;;4.78;;
69989;SDS011;57331;52.054;5.294;2023-06-26T04:44:15;12.20;;;4.60;;
69989;SDS011;57331;52.054;5.294;2023-06-26T04:46:42;13.02;;;4.10;;
69989;SDS011;57331;52.054;5.294;2023-06-26T04:49:10;14.90;;;4.47;;
69989;SDS011;57331;52.054;5.294;2023-06-26T04:51:37;16.00;;;4.28;;
69989;SDS011;57331;52.054;5.294;2023-06-26T04:54:07;15.40;;;4.50;;
69989;SDS011;57331;52.054;5.294;2023-06-26T04:56:34;12.65;;;4.10;;
69989;SDS011;57331;52.054;5.294;2023-06-26T04:59:02;13.73;;;3.80;;
69989;SDS011;57331;52.054;5.294;2023-06-26T05:01:29;11.03;;;3.97;;
69989;SDS011;57331;52.054;5.294;2023-06-26T05:03:58;12.32;;;4.18;;
69989;SDS011;57331;52.054;5.294;2023-06-26T05:06:25;10.55;;;4.13;;
69989;SDS011;57331;52.054;5.294;2023-06-26T05:08:52;15.05;;;4.15;;
69989;SDS011;57331;52.054;5.294;2023-06-26T05:11:20;9.43;;;4.03;;
69989;SDS011;57331;52.054;5.294;2023-06-26T05:13:47;9.57;;;3.97;;
69989;SDS011;57331;52.054;5.294;2023-06-26T05:16:14;13.70;;;4.05;;
69989;SDS011;57331;52.054;5.294;2023-06-26T05:18:40;7.88;;;3.58;;
69989;SDS011;57331;52.054;5.294;2023-06-26T05:21:08;13.52;;;4.10;;
69989;SDS011;57331;52.054;5.294;2023-06-26T05:23:35;13.73;;;4.07;;
69989;SDS011;57331;52.054;5.294;2023-06-26T05:26:02;11.10;;;4.07;;
69989;SDS011;57331;52.054;5.294;2023-06-26T05:28:30;11.18;;;3.53;;
69989;SDS011;57331;52.054;5.294;2023-06-26T05:30:58;13.23;;;3.80;;
69989;SDS011;57331;52.054;5.294;2023-06-26T05:33:26;11.93;;;3.83;;
69989;SDS011;57331;52.054;5.294;2023-06-26T05:35:54;8.73;;;3.63;;
69989;SDS011;57331;52.054;5.294;2023-06-26T05:38:21;7.97;;;2.97;;
69989;SDS011;57331;52.054;5.294;2023-06-26T05:40:48;9.23;;;3.13;;
69989;SDS011;57331;52.054;5.294;2023-06-26T05:43:16;10.40;;;3.50;;
69989;SDS011;57331;52.054;5.294;2023-06-26T05:45:53;9.70;;;3.30;;
69989;SDS011;57331;52.054;5.294;2023-06-26T05:48:20;11.05;;;3.60;;
69989;SDS011;57331;52.054;5.294;2023-06-26T05:50:47;10.87;;;3.30;;
69989;SDS011;57331;52.054;5.294;2023-06-26T05:53:14;8.10;;;2.90;;
69989;SDS011;57331;52.054;5.294;2023-06-26T05:55:42;9.35;;;3.28;;
69989;SDS011;57331;52.054;5.294;2023-06-26T05:58:12;9.88;;;3.15;;
69989;SDS011;57331;52.054;5.294;2023-06-26T06:00:39;10.55;;;3.53;;
69989;SDS011;57331;52.054;5.294;2023-06-26T06:03:09;14.50;;;3.10;;
69989;SDS011;57331;52.054;5.294;2023-06-26T06:05:37;8.45;;;3.10;;
69989;SDS011;57331;52.054;5.294;2023-06-26T06:08:04;9.07;;;2.83;;
69989;SDS011;57331;52.054;5.294;2023-06-26T06:10:31;9.13;;;3.40;;
69989;SDS011;57331;52.054;5.294;2023-06-26T06:12:59;9.35;;;3.10;;
69989;SDS011;57331;52.054;5.294;2023-06-26T06:15:26;10.17;;;3.17;;
69989;SDS011;57331;52.054;5.294;2023-06-26T06:17:56;9.55;;;3.33;;
69989;SDS011;57331;52.054;5.294;2023-06-26T06:20:23;8.23;;;3.17;;
69989;SDS011;57331;52.054;5.294;2023-06-26T06:22:50;13.02;;;3.30;;
69989;SDS011;57331;52.054;5.294;2023-06-26T06:25:17;8.57;;;3.22;;
69989;SDS011;57331;52.054;5.294;2023-06-26T06:27:44;10.33;;;3.60;;
69989;SDS011;57331;52.054;5.294;2023-06-26T06:30:12;8.80;;;3.17;;
69989;SDS011;57331;52.054;5.294;2023-06-26T06:32:39;10.80;;;4.18;;
69989;SDS011;57331;52.054;5.294;2023-06-26T06:35:06;8.30;;;3.17;;
69989;SDS011;57331;52.054;5.294;2023-06-26T06:37:37;8.50;;;3.58;;
69989;SDS011;57331;52.054;5.294;2023-06-26T06:40:05;11.13;;;3.93;;
69989;SDS011;57331;52.054;5.294;2023-06-26T06:42:32;7.38;;;3.10;;
69989;SDS011;57331;52.054;5.294;2023-06-26T06:45:01;7.18;;;2.42;;
69989;SDS011;57331;52.054;5.294;2023-06-26T06:47:32;8.18;;;2.92;;
69989;SDS011;57331;52.054;5.294;2023-06-26T06:50:00;7.20;;;3.05;;
69989;SDS011;57331;52.054;5.294;2023-06-26T06:52:35;9.43;;;2.60;;
69989;SDS011;57331;52.054;5.294;2023-06-26T06:55:03;8.43;;;2.97;;
69989;SDS011;57331;52.054;5.294;2023-06-26T06:57:35;10.35;;;3.30;;
69989;SDS011;57331;52.054;5.294;2023-06-26T07:00:05;10.95;;;3.92;;
69989;SDS011;57331;52.054;5.294;2023-06-26T07:02:36;7.28;;;3.30;;
69989;SDS011;57331;52.054;5.294;2023-06-26T07:05:04;10.10;;;3.03;;
69989;SDS011;57331;52.054;5.294;2023-06-26T07:07:32;9.20;;;3.13;;
69989;SDS011;57331;52.054;5.294;2023-06-26T07:10:07;6.40;;;2.80;;
69989;SDS011;57331;52.054;5.294;2023-06-26T07:12:36;7.60;;;2.97;;
69989;SDS011;57331;52.054;5.294;2023-06-26T07:15:03;11.80;;;3.20;;
69989;SDS011;57331;52.054;5.294;2023-06-26T07:17:32;7.93;;;2.90;;
69989;SDS011;57331;52.054;5.294;2023-06-26T07:20:00;10.57;;;3.47;;
69989;SDS011;57331;52.054;5.294;2023-06-26T07:22:27;12.27;;;4.07;;
69989;SDS011;57331;52.054;5.294;2023-06-26T07:24:55;11.30;;;3.13;;
69989;SDS011;57331;52.054;5.294;2023-06-26T07:27:22;8.75;;;3.30;;
69989;SDS011;57331;52.054;5.294;2023-06-26T07:29:48;8.13;;;3.17;;
69989;SDS011;57331;52.054;5.294;2023-06-26T07:32:15;7.28;;;3.00;;
69989;SDS011;57331;52.054;5.294;2023-06-26T07:34:42;8.25;;;3.20;;
69989;SDS011;57331;52.054;5.294;2023-06-26T07:37:10;14.70;;;3.20;;
69989;SDS011;57331;52.054;5.294;2023-06-26T07:39:37;7.68;;;2.75;;
69989;SDS011;57331;52.054;5.294;2023-06-26T07:42:04;7.13;;;2.93;;
69989;SDS011;57331;52.054;5.294;2023-06-26T07:44:31;10.93;;;3.20;;
69989;SDS011;57331;52.054;5.294;2023-06-26T07:46:58;9.18;;;2.70;;
69989;SDS011;57331;52.054;5.294;2023-06-26T07:49:25;11.68;;;3.50;;
69989;SDS011;57331;52.054;5.294;2023-06-26T07:51:52;7.93;;;2.80;;
69989;SDS011;57331;52.054;5.294;2023-06-26T07:54:19;9.90;;;3.10;;
69989;SDS011;57331;52.054;5.294;2023-06-26T07:56:57;7.15;;;3.13;;
69989;SDS011;57331;52.054;5.294;2023-06-26T07:59:25;9.43;;;3.08;;
69989;SDS011;57331;52.054;5.294;2023-06-26T08:01:54;11.13;;;3.28;;
69989;SDS011;57331;52.054;5.294;2023-06-26T08:04:25;8.18;;;3.30;;
69989;SDS011;57331;52.054;5.294;2023-06-26T08:06:56;9.60;;;3.60;;
69989;SDS011;57331;52.054;5.294;2023-06-26T08:09:24;6.53;;;2.92;;
69989;SDS011;57331;52.054;5.294;2023-06-26T08:11:52;8.35;;;2.83;;
69989;SDS011;57331;52.054;5.294;2023-06-26T08:14:20;14.77;;;3.45;;
69989;SDS011;57331;52.054;5.294;2023-06-26T08:16:47;12.13;;;2.78;;
69989;SDS011;57331;52.054;5.294;2023-06-26T08:19:15;10.73;;;2.97;;
69989;SDS011;57331;52.054;5.294;2023-06-26T08:21:43;14.88;;;2.90;;
69989;SDS011;57331;52.054;5.294;2023-06-26T08:24:11;14.27;;;3.55;;
69989;SDS011;57331;52.054;5.294;2023-06-26T08:26:45;11.52;;;3.45;;
69989;SDS011;57331;52.054;5.294;2023-06-26T08:29:13;9.18;;;2.40;;
69989;SDS011;57331;52.054;5.294;2023-06-26T08:31:41;7.83;;;2.43;;
69989;SDS011;57331;52.054;5.294;2023-06-26T08:34:09;8.55;;;2.40;;
69989;SDS011;57331;52.054;5.294;2023-06-26T08:36:36;10.65;;;2.40;;
69989;SDS011;57331;52.054;5.294;2023-06-26T08:39:04;8.25;;;2.40;;
69989;SDS011;57331;52.054;5.294;2023-06-26T08:41:32;8.27;;;2.47;;
69989;SDS011;57331;52.054;5.294;2023-06-26T08:43:59;7.10;;;2.33;;
69989;SDS011;57331;52.054;5.294;2023-06-26T08:46:28;7.85;;;1.95;;
69989;SDS011;57331;52.054;5.294;2023-06-26T08:48:55;6.30;;;2.17;;
69989;SDS011;57331;52.054;5.294;2023-06-26T08:51:23;7.10;;;2.17;;
69989;SDS011;57331;52.054;5.294;2023-06-26T08:53:58;9.07;;;2.40;;
69989;SDS011;57331;52.054;5.294;2023-06-26T08:56:36;7.40;;;1.87;;
69989;SDS011;57331;52.054;5.294;2023-06-26T08:59:08;11.43;;;2.50;;
69989;SDS011;57331;52.054;5.294;2023-06-26T09:01:37;8.40;;;2.58;;
69989;SDS011;57331;52.054;5.294;2023-06-26T09:04:05;9.05;;;2.35;;
69989;SDS011;57331;52.054;5.294;2023-06-26T09:06:33;11.07;;;2.40;;
69989;SDS011;57331;52.054;5.294;2023-06-26T09:09:00;7.47;;;2.20;;
69989;SDS011;57331;52.054;5.294;2023-06-26T09:11:27;6.18;;;2.10;;
69989;SDS011;57331;52.054;5.294;2023-06-26T09:13:55;8.93;;;2.20;;
69989;SDS011;57331;52.054;5.294;2023-06-26T09:16:25;10.10;;;3.10;;
69989;SDS011;57331;52.054;5.294;2023-06-26T09:18:53;9.95;;;3.00;;
69989;SDS011;57331;52.054;5.294;2023-06-26T09:21:22;8.77;;;2.27;;
69989;SDS011;57331;52.054;5.294;2023-06-26T09:23:50;8.18;;;2.30;;
69989;SDS011;57331;52.054;5.294;2023-06-26T09:26:19;7.82;;;2.10;;
69989;SDS011;57331;52.054;5.294;2023-06-26T09:28:48;6.65;;;2.42;;
69989;SDS011;57331;52.054;5.294;2023-06-26T09:31:16;10.73;;;2.10;;
69989;SDS011;57331;52.054;5.294;2023-06-26T09:34:04;7.70;;;2.53;;
69989;SDS011;57331;52.054;5.294;2023-06-26T09:36:32;8.65;;;2.20;;
69989;SDS011;57331;52.054;5.294;2023-06-26T09:39:05;6.97;;;2.20;;
69989;SDS011;57331;52.054;5.294;2023-06-26T09:41:37;10.55;;;2.30;;
69989;SDS011;57331;52.054;5.294;2023-06-26T09:44:04;7.85;;;2.47;;
69989;SDS011;57331;52.054;5.294;2023-06-26T09:46:32;8.30;;;2.10;;
69989;SDS011;57331;52.054;5.294;2023-06-26T09:49:03;8.20;;;1.95;;
69989;SDS011;57331;52.054;5.294;2023-06-26T09:51:35;7.43;;;2.20;;
69989;SDS011;57331;52.054;5.294;2023-06-26T09:54:03;7.57;;;2.17;;
69989;SDS011;57331;52.054;5.294;2023-06-26T09:56:31;8.38;;;2.80;;
69989;SDS011;57331;52.054;5.294;2023-06-26T09:59:00;8.57;;;2.30;;
69989;SDS011;57331;52.054;5.294;2023-06-26T10:01:31;6.32;;;2.85;;
69989;SDS011;57331;52.054;5.294;2023-06-26T10:04:00;9.85;;;2.33;;
69989;SDS011;57331;52.054;5.294;2023-06-26T10:06:40;4.55;;;1.88;;
69989;SDS011;57331;52.054;5.294;2023-06-26T10:09:18;8.07;;;2.13;;
69989;SDS011;57331;52.054;5.294;2023-06-26T10:11:48;5.53;;;1.90;;
69989;SDS011;57331;52.054;5.294;2023-06-26T10:14:26;6.50;;;1.55;;
69989;SDS011;57331;52.054;5.294;2023-06-26T10:16:56;5.03;;;1.95;;
69989;SDS011;57331;52.054;5.294;2023-06-26T10:19:25;5.20;;;1.80;;
69989;SDS011;57331;52.054;5.294;2023-06-26T10:21:55;9.88;;;2.90;;
69989;SDS011;57331;52.054;5.294;2023-06-26T10:24:23;5.23;;;1.80;;
69989;SDS011;57331;52.054;5.294;2023-06-26T10:26:52;6.43;;;1.88;;
69989;SDS011;57331;52.054;5.294;2023-06-26T10:29:26;8.32;;;2.35;;
69989;SDS011;57331;52.054;5.294;2023-06-26T10:31:55;8.32;;;2.30;;
69989;SDS011;57331;52.054;5.294;2023-06-26T10:34:24;4.03;;;1.92;;
69989;SDS011;57331;52.054;5.294;2023-06-26T10:37:01;8.47;;;3.03;;
69989;SDS011;57331;52.054;5.294;2023-06-26T10:39:45;7.88;;;2.22;;
69989;SDS011;57331;52.054;5.294;2023-06-26T10:42:16;7.78;;;1.80;;
69989;SDS011;57331;52.054;5.294;2023-06-26T10:44:48;6.80;;;1.77;;
69989;SDS011;57331;52.054;5.294;2023-06-26T10:47:31;6.05;;;1.88;;
69989;SDS011;57331;52.054;5.294;2023-06-26T10:50:18;11.30;;;1.90;;
69989;SDS011;57331;52.054;5.294;2023-06-26T10:53:15;4.63;;;1.80;;
69989;SDS011;57331;52.054;5.294;2023-06-26T10:56:04;5.60;;;2.00;;
69989;SDS011;57331;52.054;5.294;2023-06-26T10:58:33;5.30;;;1.90;;
69989;SDS011;57331;52.054;5.294;2023-06-26T11:03:44;5.30;;;1.73;;
69989;SDS011;57331;52.054;5.294;2023-06-26T11:06:13;4.45;;;1.80;;
69989;SDS011;57331;52.054;5.294;2023-06-26T11:08:44;4.93;;;2.00;;
69989;SDS011;57331;52.054;5.294;2023-06-26T11:11:12;6.72;;;1.90;;
69989;SDS011;57331;52.054;5.294;2023-06-26T11:13:39;7.15;;;2.13;;
69989;SDS011;57331;52.054;5.294;2023-06-26T11:16:07;6.80;;;2.00;;
69989;SDS011;57331;52.054;5.294;2023-06-26T11:18:34;7.65;;;1.90;;
69989;SDS011;57331;52.054;5.294;2023-06-26T11:21:07;6.93;;;2.35;;
69989;SDS011;57331;52.054;5.294;2023-06-26T11:23:36;8.90;;;1.80;;
69989;SDS011;57331;52.054;5.294;2023-06-26T11:26:16;5.82;;;2.10;;
69989;SDS011;57331;52.054;5.294;2023-06-26T11:28:51;6.07;;;2.17;;
69989;SDS011;57331;52.054;5.294;2023-06-26T11:31:24;5.25;;;1.77;;
69989;SDS011;57331;52.054;5.294;2023-06-26T11:33:53;5.47;;;2.40;;
69989;SDS011;57331;52.054;5.294;2023-06-26T11:36:22;11.10;;;2.53;;
69989;SDS011;57331;52.054;5.294;2023-06-26T11:38:55;4.90;;;2.20;;
69989;SDS011;57331;52.054;5.294;2023-06-26T11:41:30;5.57;;;1.83;;
69989;SDS011;57331;52.054;5.294;2023-06-26T11:44:04;7.93;;;2.00;;
69989;SDS011;57331;52.054;5.294;2023-06-26T11:46:33;8.60;;;2.22;;
69989;SDS011;57331;52.054;5.294;2023-06-26T11:49:04;7.75;;;2.00;;
69989;SDS011;57331;52.054;5.294;2023-06-26T11:51:34;6.43;;;2.00;;
69989;SDS011;57331;52.054;5.294;2023-06-26T11:54:03;6.50;;;1.97;;
69989;SDS011;57331;52.054;5.294;2023-06-26T11:56:30;5.50;;;1.77;;
69989;SDS011;57331;52.054;5.294;2023-06-26T11:59:05;4.50;;;1.67;;
69989;SDS011;57331;52.054;5.294;2023-06-26T12:01:41;7.78;;;1.77;;
69989;SDS011;57331;52.054;5.294;2023-06-26T12:04:11;6.97;;;1.60;;
69989;SDS011;57331;52.054;5.294;2023-06-26T12:06:42;4.40;;;1.60;;
69989;SDS011;57331;52.054;5.294;2023-06-26T12:09:12;9.15;;;1.90;;
69989;SDS011;57331;52.054;5.294;2023-06-26T12:11:40;6.47;;;1.60;;
69989;SDS011;57331;52.054;5.294;2023-06-26T12:14:09;4.63;;;1.60;;
69989;SDS011;57331;52.054;5.294;2023-06-26T12:16:38;6.55;;;1.80;;
69989;SDS011;57331;52.054;5.294;2023-06-26T12:19:06;3.03;;;1.30;;
69989;SDS011;57331;52.054;5.294;2023-06-26T12:24:04;6.78;;;1.98;;
69989;SDS011;57331;52.054;5.294;2023-06-26T12:26:31;5.05;;;1.75;;
69989;SDS011;57331;52.054;5.294;2023-06-26T12:29:05;4.57;;;1.60;;
69989;SDS011;57331;52.054;5.294;2023-06-26T12:31:33;5.70;;;1.80;;
69989;SDS011;57331;52.054;5.294;2023-06-26T12:34:01;9.05;;;1.70;;
69989;SDS011;57331;52.054;5.294;2023-06-26T12:36:27;7.22;;;1.52;;
69989;SDS011;57331;52.054;5.294;2023-06-26T12:38:54;3.70;;;1.40;;
69989;SDS011;57331;52.054;5.294;2023-06-26T12:41:24;6.82;;;1.58;;
69989;SDS011;57331;52.054;5.294;2023-06-26T12:43:55;4.33;;;1.60;;
69989;SDS011;57331;52.054;5.294;2023-06-26T12:46:35;6.05;;;1.58;;
69989;SDS011;57331;52.054;5.294;2023-06-26T12:49:02;5.30;;;1.90;;
69989;SDS011;57331;52.054;5.294;2023-06-26T12:51:35;4.45;;;1.33;;
69989;SDS011;57331;52.054;5.294;2023-06-26T12:54:02;3.80;;;1.20;;
69989;SDS011;57331;52.054;5.294;2023-06-26T12:56:29;6.97;;;1.70;;
69989;SDS011;57331;52.054;5.294;2023-06-26T12:58:56;8.68;;;1.30;;
69989;SDS011;57331;52.054;5.294;2023-06-26T13:01:23;5.97;;;1.60;;
69989;SDS011;57331;52.054;5.294;2023-06-26T13:03:50;5.15;;;1.52;;
69989;SDS011;57331;52.054;5.294;2023-06-26T13:06:18;5.80;;;1.58;;
69989;SDS011;57331;52.054;5.294;2023-06-26T13:08:45;11.40;;;2.00;;
69989;SDS011;57331;52.054;5.294;2023-06-26T13:11:12;9.70;;;1.92;;
69989;SDS011;57331;52.054;5.294;2023-06-26T13:13:39;4.55;;;1.85;;
69989;SDS011;57331;52.054;5.294;2023-06-26T13:16:06;7.47;;;1.67;;
69989;SDS011;57331;52.054;5.294;2023-06-26T13:18:33;6.88;;;2.22;;
69989;SDS011;57331;52.054;5.294;2023-06-26T13:21:00;5.53;;;1.90;;
69989;SDS011;57331;52.054;5.294;2023-06-26T13:23:27;5.28;;;1.92;;
69989;SDS011;57331;52.054;5.294;2023-06-26T13:25:54;6.97;;;1.80;;
69989;SDS011;57331;52.054;5.294;2023-06-26T13:28:21;4.28;;;1.70;;
69989;SDS011;57331;52.054;5.294;2023-06-26T13:30:48;7.60;;;2.13;;
69989;SDS011;57331;52.054;5.294;2023-06-26T13:33:16;6.63;;;1.60;;
69989;SDS011;57331;52.054;5.294;2023-06-26T13:35:42;9.13;;;1.48;;
69989;SDS011;57331;52.054;5.294;2023-06-26T13:38:09;5.75;;;1.60;;
69989;SDS011;57331;52.054;5.294;2023-06-26T13:40:36;6.90;;;1.90;;
69989;SDS011;57331;52.054;5.294;2023-06-26T13:43:04;4.10;;;1.50;;
69989;SDS011;57331;52.054;5.294;2023-06-26T13:45:31;3.40;;;1.50;;
69989;SDS011;57331;52.054;5.294;2023-06-26T13:47:58;5.25;;;1.70;;
69989;SDS011;57331;52.054;5.294;2023-06-26T13:50:25;5.07;;;1.75;;
69989;SDS011;57331;52.054;5.294;2023-06-26T13:53:03;4.65;;;1.45;;
69989;SDS011;57331;52.054;5.294;2023-06-26T13:55:30;5.05;;;1.40;;
69989;SDS011;57331;52.054;5.294;2023-06-26T13:57:57;6.37;;;1.60;;
69989;SDS011;57331;52.054;5.294;2023-06-26T14:00:25;6.57;;;1.40;;
69989;SDS011;57331;52.054;5.294;2023-06-26T14:02:52;5.18;;;1.77;;
69989;SDS011;57331;52.054;5.294;2023-06-26T14:05:19;5.32;;;1.63;;
69989;SDS011;57331;52.054;5.294;2023-06-26T14:08:01;5.05;;;1.83;;
69989;SDS011;57331;52.054;5.294;2023-06-26T14:10:30;5.80;;;1.70;;
69989;SDS011;57331;52.054;5.294;2023-06-26T14:12:57;6.38;;;1.73;;
69989;SDS011;57331;52.054;5.294;2023-06-26T14:15:24;9.07;;;2.58;;
69989;SDS011;57331;52.054;5.294;2023-06-26T14:17:51;8.60;;;2.80;;
69989;SDS011;57331;52.054;5.294;2023-06-26T14:20:18;4.55;;;1.77;;
69989;SDS011;57331;52.054;5.294;2023-06-26T14:22:47;8.70;;;2.80;;
69989;SDS011;57331;52.054;5.294;2023-06-26T14:25:15;7.78;;;2.80;;
69989;SDS011;57331;52.054;5.294;2023-06-26T14:27:43;6.15;;;2.30;;
69989;SDS011;57331;52.054;5.294;2023-06-26T14:30:10;6.32;;;2.03;;
69989;SDS011;57331;52.054;5.294;2023-06-26T14:32:38;4.47;;;1.60;;
69989;SDS011;57331;52.054;5.294;2023-06-26T14:35:05;4.97;;;1.80;;
69989;SDS011;57331;52.054;5.294;2023-06-26T14:37:32;7.93;;;2.10;;
69989;SDS011;57331;52.054;5.294;2023-06-26T14:39:59;7.57;;;1.90;;
69989;SDS011;57331;52.054;5.294;2023-06-26T14:42:26;6.70;;;2.25;;
69989;SDS011;57331;52.054;5.294;2023-06-26T14:44:54;5.47;;;1.90;;
69989;SDS011;57331;52.054;5.294;2023-06-26T14:47:21;5.37;;;1.80;;
69989;SDS011;57331;52.054;5.294;2023-06-26T14:49:48;6.30;;;1.95;;
69989;SDS011;57331;52.054;5.294;2023-06-26T14:52:15;4.45;;;1.80;;
69989;SDS011;57331;52.054;5.294;2023-06-26T14:54:42;3.95;;;1.50;;
69989;SDS011;57331;52.054;5.294;2023-06-26T14:57:09;5.22;;;1.80;;
69989;SDS011;57331;52.054;5.294;2023-06-26T14:59:36;4.43;;;1.80;;
69989;SDS011;57331;52.054;5.294;2023-06-26T15:02:02;4.72;;;1.65;;
69989;SDS011;57331;52.054;5.294;2023-06-26T15:04:31;5.25;;;1.55;;